Aurora, South Dakota
Current Conditions -  °F | °C
As of 11:35 AM on Thursday 30 Oct 2014 (Local Time) from KMDS Reporting Station
Overcast Overcast  
Wind Chill: 39°   Ceiling: 1700
Heat Index: 46°   Visibility: 10mi
Dew Point: 43°   Wind: 17mph
Humidity: 87%   Direction: 350°N
Pressure: 30.12"   Gusts: 23mph
Location:  44.28°N, 96.69°W
Report Text: KMDS 301635Z AUTO 35015G20KT 10SM OVC017 08/06 A3012 RMK AO2
Loading
Personal Weather Stations






























Interactive Weather Map
Tropical Storm Tracking
New forecast layout! Learn more

10-Day Weather Forecast

Advertisements
Track Severe Weather on mobile